Terminal Aerodrome Forecast
Issued by NWS Tampa Bay Area, FL

Home | Current Version | Previous Version | Text Only | Print | Product List | Glossary On
Versions: 1 2 3 4 5 6 7 8 9 10 11 12 13
000
FTUS42 KTBW 222300
TAFSRQ
TAF
KSRQ 222338Z 2300/2324 VRB04KT P6SM SCT130 BKN250
     FM230400 VRB03KT P6SM SCT250
     FM231300 VRB04KT P6SM FEW015 SCT250
     FM231500 25006KT P6SM SCT025 SCT250
     FM231700 27009KT P6SM VCTS SCT035CB SCT100 BKN250=

USA.gov is the U.S. government's official web portal to all federal, state and local government web resources and services.